Time;durP1;ratioP1;P1;durP2;ratioP2;P2;SDS_P1;SDS_P2;PMS_P1;PMS_P2;Temp;Humidity;BMP_temperature;BMP_pressure;BME280_temperature;BME280_humidity;BME280_pressure;Samples;Min_cycle;Max_cycle;Signal;HPM_P1;HPM_P2
2022/06/09 00:02:00;;;;;;;10.20;9.20;;;15.90;99.90;;;;;;5000270;28;20236;-68
2022/06/09 00:04:34;;;;;;;12.05;10.85;;;15.90;99.90;;;;;;4994114;28;20229;-68
2022/06/09 00:07:05;;;;;;;14.05;10.70;;;15.90;99.90;;;;;;4999421;28;20217;-68
2022/06/09 00:09:36;;;;;;;14.35;12.85;;;15.90;99.90;;;;;;4986839;28;20745;-68
2022/06/09 00:12:05;;;;;;;13.45;12.02;;;16.00;99.90;;;;;;4996478;28;20275;-68
2022/06/09 00:14:33;;;;;;;14.48;12.65;;;15.90;99.90;;;;;;4991035;28;20666;-68
2022/06/09 00:17:00;;;;;;;12.23;10.90;;;15.90;99.90;;;;;;4993486;28;20537;-69
2022/06/09 00:19:27;;;;;;;17.65;12.65;;;15.90;99.90;;;;;;4995115;28;20225;-70
2022/06/09 00:21:54;;;;;;;13.40;12.00;;;16.00;99.90;;;;;;4994581;28;20233;-69
2022/06/09 00:24:23;;;;;;;14.48;11.65;;;16.00;99.90;;;;;;4990475;28;20295;-68
2022/06/09 00:26:50;;;;;;;14.45;12.05;;;16.00;99.90;;;;;;4993879;28;20251;-70
2022/06/09 00:29:17;;;;;;;14.38;12.00;;;16.00;99.90;;;;;;4994076;28;20628;-69
2022/06/09 00:31:43;;;;;;;15.68;11.63;;;16.10;99.90;;;;;;4992192;28;20269;-69
2022/06/09 00:34:10;;;;;;;16.20;13.57;;;16.10;99.90;;;;;;4992816;28;20201;-69
2022/06/09 00:36:38;;;;;;;14.88;12.98;;;16.10;99.90;;;;;;4993973;28;20206;-69
2022/06/09 00:39:05;;;;;;;16.55;13.73;;;16.00;99.90;;;;;;4992455;28;20206;-69
2022/06/09 00:41:39;;;;;;;13.50;12.10;;;16.10;99.90;;;;;;4992200;28;20633;-68
2022/06/09 00:44:18;;;;;;;13.15;11.80;;;16.10;99.90;;;;;;4983975;28;21522;-69
2022/06/09 00:46:52;;;;;;;17.40;13.77;;;16.10;99.90;;;;;;4983139;28;20685;-69
2022/06/09 00:49:25;;;;;;;17.27;15.48;;;16.10;99.90;;;;;;4984998;28;20749;-69
2022/06/09 00:51:57;;;;;;;17.05;13.65;;;16.10;99.90;;;;;;4996533;28;20234;-67
2022/06/09 00:54:27;;;;;;;18.08;16.17;;;16.20;99.90;;;;;;4985474;28;20223;-68
2022/06/09 00:57:00;;;;;;;17.45;15.00;;;16.10;99.90;;;;;;4986939;28;20262;-68
2022/06/09 00:59:28;;;;;;;17.50;14.38;;;16.20;99.90;;;;;;4967783;28;20221;-69
2022/06/09 01:01:58;;;;;;;18.95;15.82;;;16.20;99.90;;;;;;4981618;28;20228;-68
2022/06/09 01:04:26;;;;;;;18.60;16.38;;;16.20;99.90;;;;;;4987762;28;20289;-68
2022/06/09 01:06:57;;;;;;;17.42;15.70;;;16.20;99.90;;;;;;4982215;28;20234;-68
2022/06/09 01:09:27;;;;;;;18.73;15.07;;;16.20;99.90;;;;;;4991440;28;20202;-68
2022/06/09 01:11:57;;;;;;;19.38;14.82;;;16.20;99.90;;;;;;4988461;28;20635;-69
2022/06/09 01:14:27;;;;;;;21.75;17.88;;;16.20;99.90;;;;;;5000000;28;20214;-70
2022/06/09 01:17:08;;;;;;;19.73;16.60;;;16.10;99.90;;;;;;4992030;28;20281;-69
2022/06/09 01:19:50;;;;;;;23.30;18.35;;;16.10;99.90;;;;;;4969907;28;20311;-69
2022/06/09 01:22:38;;;;;;;18.83;16.63;;;16.10;99.90;;;;;;4991821;28;20324;-69
2022/06/09 01:28:43;;;;;;;31.75;18.63;;;16.10;99.90;;;;;;4988599;28;20225;-67
2022/06/09 01:31:32;;;;;;;35.95;20.40;;;16.10;99.90;;;;;;4989419;28;20229;-67
2022/06/09 01:34:05;;;;;;;26.80;20.10;;;16.10;99.90;;;;;;4992353;28;20201;-68
2022/06/09 01:36:37;;;;;;;26.77;20.55;;;16.10;99.90;;;;;;4985751;28;20281;-68
2022/06/09 01:39:05;;;;;;;31.45;22.33;;;16.10;99.90;;;;;;4989960;28;20202;-68
2022/06/09 01:41:33;;;;;;;26.17;21.83;;;16.10;99.90;;;;;;4987541;28;20835;-68
2022/06/09 01:44:00;;;;;;;28.20;22.70;;;16.20;99.90;;;;;;4991059;28;20241;-68
2022/06/09 01:46:31;;;;;;;32.10;24.63;;;16.20;99.90;;;;;;4988559;28;20301;-68
2022/06/09 01:49:02;;;;;;;31.70;25.35;;;16.20;99.90;;;;;;4991901;28;20222;-68
2022/06/09 01:51:34;;;;;;;32.28;24.08;;;16.20;99.90;;;;;;4986282;28;20523;-69
2022/06/09 01:54:04;;;;;;;35.95;23.58;;;16.30;99.90;;;;;;4981988;28;20680;-70
2022/06/09 01:56:35;;;;;;;35.92;25.50;;;16.20;99.90;;;;;;4991696;28;20194;-70
2022/06/09 01:59:07;;;;;;;37.78;25.48;;;16.20;99.90;;;;;;4983672;28;20208;-69
2022/06/09 02:01:39;;;;;;;38.47;27.00;;;16.10;99.90;;;;;;4991852;28;20285;-69
2022/06/09 02:04:11;;;;;;;34.45;25.08;;;16.10;99.90;;;;;;4984528;28;20259;-69
2022/06/09 02:06:38;;;;;;;35.35;26.05;;;16.20;99.90;;;;;;4985423;28;20317;-69
2022/06/09 02:09:06;;;;;;;41.92;27.02;;;16.20;99.90;;;;;;4988461;28;20743;-69
2022/06/09 02:11:33;;;;;;;45.35;30.85;;;16.10;99.90;;;;;;4992932;28;20229;-69
2022/06/09 02:14:01;;;;;;;35.78;25.88;;;16.20;99.90;;;;;;4989247;28;20306;-69
2022/06/09 02:16:29;;;;;;;43.45;27.60;;;16.20;99.90;;;;;;4987863;28;20293;-69
2022/06/09 02:18:58;;;;;;;43.30;27.50;;;16.10;99.90;;;;;;4983306;28;20762;-69
2022/06/09 02:21:29;;;;;;;41.65;26.02;;;16.00;99.90;;;;;;4979718;28;20193;-69
2022/06/09 02:23:56;;;;;;;40.55;29.73;;;16.00;99.90;;;;;;4987217;28;20285;-69
2022/06/09 02:26:23;;;;;;;41.05;28.33;;;15.90;99.90;;;;;;4994296;28;20197;-68
2022/06/09 02:28:51;;;;;;;46.92;28.70;;;16.00;99.90;;;;;;4992265;28;20715;-70
2022/06/09 02:31:21;;;;;;;41.50;27.73;;;16.00;99.90;;;;;;4986727;28;20269;-69
2022/06/09 02:33:48;;;;;;;46.78;30.60;;;16.00;99.90;;;;;;4988633;28;20234;-69
2022/06/09 02:36:17;;;;;;;41.13;27.65;;;16.00;99.90;;;;;;4986243;28;20206;-70
2022/06/09 02:38:44;;;;;;;42.72;30.00;;;16.00;99.90;;;;;;4991996;28;20201;-69
2022/06/09 02:41:12;;;;;;;38.15;29.02;;;16.10;99.90;;;;;;4992872;28;20198;-69
2022/06/09 02:43:40;;;;;;;39.58;28.27;;;16.10;99.90;;;;;;4993517;28;20217;-68
2022/06/09 02:46:07;;;;;;;37.75;26.80;;;16.10;99.90;;;;;;4999072;28;20680;-69
2022/06/09 02:48:35;;;;;;;40.75;27.63;;;16.20;99.90;;;;;;4996087;28;20308;-69
2022/06/09 02:51:17;;;;;;;44.60;29.20;;;16.20;99.90;;;;;;4986648;28;20215;-70
2022/06/09 02:53:44;;;;;;;42.65;29.08;;;16.20;99.90;;;;;;4994898;28;20311;-69
2022/06/09 02:56:11;;;;;;;41.45;29.48;;;16.20;99.90;;;;;;4994012;28;20295;-69
2022/06/09 02:58:38;;;;;;;38.83;29.40;;;16.20;99.90;;;;;;4989061;28;20280;-69
2022/06/09 03:01:05;;;;;;;37.90;27.83;;;16.20;99.90;;;;;;4989694;28;20235;-69
2022/06/09 03:03:32;;;;;;;39.80;31.88;;;16.20;99.90;;;;;;4984943;28;20252;-70
2022/06/09 03:05:59;;;;;;;46.20;29.60;;;16.20;99.90;;;;;;4995821;28;20354;-69
2022/06/09 03:08:27;;;;;;;51.67;31.42;;;16.20;99.90;;;;;;4985346;28;20291;-69
2022/06/09 03:10:54;;;;;;;48.22;32.20;;;16.20;99.90;;;;;;4995193;28;20296;-69
2022/06/09 03:13:22;;;;;;;52.17;31.52;;;16.20;99.90;;;;;;4999282;28;20240;-66
2022/06/09 03:15:50;;;;;;;46.60;31.17;;;16.20;99.90;;;;;;4992421;28;20207;-67
2022/06/09 03:18:17;;;;;;;41.65;30.15;;;16.10;99.90;;;;;;4993786;28;20198;-67
2022/06/09 03:20:45;;;;;;;51.88;33.33;;;16.10;99.90;;;;;;4985836;28;20237;-68
2022/06/09 03:23:12;;;;;;;53.65;33.95;;;16.10;99.90;;;;;;4994996;28;20728;-68
2022/06/09 03:25:41;;;;;;;48.13;34.20;;;16.10;99.90;;;;;;5001666;28;20680;-69
2022/06/09 03:28:09;;;;;;;46.35;34.08;;;16.10;99.90;;;;;;4998161;28;20222;-68
2022/06/09 03:30:44;;;;;;;52.85;35.08;;;16.10;99.90;;;;;;5009671;28;20297;-69
2022/06/09 03:33:11;;;;;;;52.53;33.38;;;16.10;99.90;;;;;;4994023;28;20229;-68
2022/06/09 03:35:38;;;;;;;59.70;34.17;;;16.10;99.90;;;;;;4995900;28;20649;-68
2022/06/09 03:38:15;;;;;;;52.25;33.88;;;16.10;99.90;;;;;;4995127;28;20195;-68
2022/06/09 03:40:43;;;;;;;48.75;31.38;;;16.10;99.90;;;;;;4995597;28;20221;-69
2022/06/09 03:43:34;;;;;;;46.45;32.72;;;16.10;99.90;;;;;;4995411;28;20772;-69
2022/06/09 03:46:01;;;;;;;51.40;32.88;;;16.10;99.90;;;;;;4995066;28;20241;-69
2022/06/09 03:48:44;;;;;;;56.88;34.33;;;16.10;99.90;;;;;;4995539;28;20210;-69
2022/06/09 03:54:35;;;;;;;42.35;30.98;;;16.20;99.90;;;;;;4990616;28;20186;-69
2022/06/09 03:57:04;;;;;;;47.05;31.08;;;16.20;99.90;;;;;;5001913;28;20200;-69
2022/06/09 03:59:41;;;;;;;39.78;29.02;;;16.20;99.90;;;;;;4993241;28;20740;-69
2022/06/09 04:02:08;;;;;;;47.00;32.80;;;16.20;99.90;;;;;;5005275;28;20694;-68
2022/06/09 04:04:41;;;;;;;40.05;28.38;;;16.30;99.90;;;;;;4995038;28;20238;-68
2022/06/09 04:07:08;;;;;;;44.55;30.08;;;16.30;99.90;;;;;;4995305;28;20285;-68
2022/06/09 04:09:42;;;;;;;53.13;33.47;;;16.30;99.90;;;;;;4995640;28;20559;-69
2022/06/09 04:12:11;;;;;;;49.20;32.22;;;16.30;99.90;;;;;;4994996;28;20232;-69
2022/06/09 04:14:39;;;;;;;51.53;31.85;;;16.20;99.90;;;;;;4996027;28;20202;-69
2022/06/09 04:17:06;;;;;;;48.00;32.95;;;16.40;99.90;;;;;;4999137;28;20219;-69
2022/06/09 04:19:33;;;;;;;47.80;31.42;;;16.40;99.90;;;;;;5000518;28;20261;-69
2022/06/09 04:22:00;;;;;;;39.53;28.63;;;16.40;99.90;;;;;;4997943;28;20561;-68
2022/06/09 04:24:27;;;;;;;39.50;30.23;;;16.40;99.90;;;;;;4994536;28;20205;-69
2022/06/09 04:26:56;;;;;;;42.97;29.33;;;16.40;99.90;;;;;;4994058;28;20297;-69
2022/06/09 04:29:25;;;;;;;42.03;29.25;;;16.50;99.90;;;;;;4998128;28;20221;-69
2022/06/09 04:31:52;;;;;;;39.78;27.98;;;16.40;99.90;;;;;;4992801;28;20317;-69
2022/06/09 04:34:19;;;;;;;40.20;29.10;;;16.40;99.90;;;;;;4998777;28;20285;-68
2022/06/09 04:36:46;;;;;;;38.13;25.55;;;16.60;99.90;;;;;;4994634;28;20207;-68
2022/06/09 04:39:14;;;;;;;40.17;27.52;;;16.60;99.90;;;;;;4999816;28;20663;-68
2022/06/09 04:41:41;;;;;;;38.42;26.75;;;16.60;99.90;;;;;;4994562;28;20285;-69
2022/06/09 04:44:08;;;;;;;40.63;28.35;;;16.60;99.90;;;;;;5001579;28;20239;-68
2022/06/09 04:46:36;;;;;;;34.53;26.08;;;16.60;99.90;;;;;;4993849;28;20258;-67
2022/06/09 04:49:03;;;;;;;35.08;28.25;;;16.70;99.90;;;;;;4988991;28;20279;-68
2022/06/09 04:51:31;;;;;;;41.55;31.02;;;16.60;99.90;;;;;;4988823;28;20448;-68
2022/06/09 04:53:58;;;;;;;37.50;27.75;;;16.60;99.90;;;;;;4987519;28;20262;-69
2022/06/09 04:56:25;;;;;;;39.90;27.30;;;16.80;99.90;;;;;;4994772;28;20295;-69
2022/06/09 04:58:53;;;;;;;38.35;27.83;;;16.90;99.90;;;;;;4989673;28;20543;-69
2022/06/09 05:01:22;;;;;;;35.80;26.55;;;16.90;99.90;;;;;;4992829;28;20544;-67
2022/06/09 05:03:51;;;;;;;43.35;28.85;;;16.90;99.90;;;;;;4996907;28;20732;-68
2022/06/09 05:06:19;;;;;;;33.33;25.55;;;16.90;99.90;;;;;;4995821;28;20282;-70
2022/06/09 05:08:46;;;;;;;41.30;29.08;;;16.90;99.90;;;;;;4996254;28;20286;-68
2022/06/09 05:11:14;;;;;;;38.35;25.38;;;16.90;99.90;;;;;;4996917;28;20249;-68
2022/06/09 05:13:42;;;;;;;36.65;26.10;;;16.90;99.90;;;;;;4999932;28;20301;-67
2022/06/09 05:16:09;;;;;;;29.93;26.27;;;17.00;99.90;;;;;;4999108;28;20266;-68
2022/06/09 05:18:47;;;;;;;34.00;26.07;;;16.90;99.90;;;;;;4997969;28;20539;-69
2022/06/09 05:21:16;;;;;;;40.28;26.35;;;16.90;99.90;;;;;;4994201;28;20470;-67
2022/06/09 05:23:43;;;;;;;34.65;23.75;;;16.90;99.90;;;;;;4987352;28;20220;-67
2022/06/09 05:26:11;;;;;;;36.83;25.10;;;16.90;99.90;;;;;;4985035;28;20208;-66
2022/06/09 05:28:39;;;;;;;34.85;25.27;;;16.90;99.90;;;;;;4985275;28;20274;-69
2022/06/09 05:31:06;;;;;;;28.63;23.55;;;17.00;99.90;;;;;;4990533;28;20204;-70
2022/06/09 05:33:33;;;;;;;29.35;23.42;;;17.00;99.90;;;;;;5002054;28;20652;-71
2022/06/09 05:36:01;;;;;;;42.03;23.45;;;16.90;99.90;;;;;;4993936;28;20305;-72
2022/06/09 05:46:46;;;;;;;27.02;20.55;;;16.90;99.90;;;;;;4991862;28;20214;-72
2022/06/09 05:49:13;;;;;;;24.52;20.30;;;16.90;99.90;;;;;;4991789;28;20218;-70
2022/06/09 05:51:40;;;;;;;22.40;18.88;;;17.00;99.90;;;;;;4992233;28;20199;-70
2022/06/09 05:54:10;;;;;;;27.65;17.20;;;16.90;99.90;;;;;;4991624;28;20205;-73
2022/06/09 05:56:37;;;;;;;28.27;18.33;;;16.90;99.90;;;;;;4992984;28;20693;-73
2022/06/09 05:59:05;;;;;;;28.45;19.75;;;16.90;99.90;;;;;;4993605;28;20198;-73
2022/06/09 06:01:32;;;;;;;25.83;17.60;;;16.90;99.90;;;;;;5002801;28;20204;-76
2022/06/09 06:03:59;;;;;;;21.40;16.63;;;17.00;99.90;;;;;;4998326;28;20440;-73
2022/06/09 06:06:37;;;;;;;20.65;16.63;;;17.00;99.90;;;;;;4992957;28;20271;-75
2022/06/09 06:09:06;;;;;;;23.45;16.02;;;16.90;99.90;;;;;;4996315;28;20642;-78
2022/06/09 06:11:36;;;;;;;24.73;17.08;;;16.90;99.90;;;;;;4991850;28;20268;-76
2022/06/09 06:14:04;;;;;;;21.08;14.65;;;17.00;99.90;;;;;;4991957;28;20655;-75
2022/06/09 06:16:31;;;;;;;21.70;15.18;;;17.10;99.90;;;;;;4989176;28;20299;-72
2022/06/09 06:18:58;;;;;;;18.90;13.93;;;17.20;99.90;;;;;;4986918;28;20614;-72
2022/06/09 06:21:25;;;;;;;20.23;12.87;;;17.30;99.90;;;;;;4989155;28;20535;-71
2022/06/09 06:23:55;;;;;;;19.00;13.60;;;17.50;99.90;;;;;;4992945;28;20950;-74
2022/06/09 06:26:22;;;;;;;17.73;14.30;;;17.60;99.90;;;;;;4995521;28;20915;-73
2022/06/09 06:28:52;;;;;;;16.43;14.27;;;17.70;99.90;;;;;;4994588;28;20477;-70
2022/06/09 06:31:19;;;;;;;18.93;11.80;;;17.70;99.90;;;;;;4990127;28;20477;-71
2022/06/09 06:33:46;;;;;;;17.00;12.93;;;17.60;99.90;;;;;;4987414;28;20538;-70
2022/06/09 06:36:13;;;;;;;12.93;11.57;;;17.60;99.90;;;;;;4982410;28;20457;-70
2022/06/09 06:38:41;;;;;;;19.07;12.10;;;17.80;99.90;;;;;;4989574;28;20462;-70
2022/06/09 06:41:10;;;;;;;18.13;11.33;;;18.00;99.90;;;;;;4992136;28;20455;-69
2022/06/09 06:43:37;;;;;;;14.63;11.47;;;18.00;99.90;;;;;;4992384;28;20486;-69
2022/06/09 06:46:06;;;;;;;13.43;11.03;;;18.00;99.90;;;;;;4994743;28;20548;-69
2022/06/09 06:48:34;;;;;;;14.50;11.70;;;17.80;99.90;;;;;;4997261;28;20526;-69
2022/06/09 06:51:01;;;;;;;19.17;13.27;;;17.80;99.90;;;;;;4994605;28;20216;-71
2022/06/09 06:53:28;;;;;;;12.87;11.57;;;17.80;99.90;;;;;;4993579;28;20831;-70
2022/06/09 06:55:55;;;;;;;15.80;11.33;;;17.80;99.90;;;;;;4994173;28;20456;-69
2022/06/09 06:58:22;;;;;;;21.10;10.73;;;17.90;99.90;;;;;;4998332;28;20442;-71
2022/06/09 07:00:49;;;;;;;11.50;10.07;;;17.90;99.90;;;;;;4993186;28;20441;-68
2022/06/09 07:03:18;;;;;;;17.10;9.57;;;18.00;99.90;;;;;;4995315;28;20472;-71
2022/06/09 07:05:45;;;;;;;10.80;8.93;;;18.00;99.90;;;;;;4994946;28;20562;-69
2022/06/09 07:08:15;;;;;;;13.83;9.40;;;18.00;99.90;;;;;;4995056;28;20449;-69
2022/06/09 07:10:43;;;;;;;13.63;10.60;;;18.00;99.90;;;;;;4994444;28;20948;-69
2022/06/09 07:13:10;;;;;;;16.90;10.33;;;18.10;99.90;;;;;;4996499;28;20960;-70
2022/06/09 07:15:38;;;;;;;18.20;10.43;;;18.30;99.90;;;;;;4997155;28;21002;-69
2022/06/09 07:18:05;;;;;;;17.80;9.67;;;18.30;99.90;;;;;;4995334;28;20444;-69
2022/06/09 07:20:33;;;;;;;14.77;9.70;;;18.60;99.90;;;;;;4995684;28;20473;-69
2022/06/09 07:23:00;;;;;;;15.53;10.20;;;18.70;99.90;;;;;;4991114;28;20524;-69
2022/06/09 07:25:28;;;;;;;12.60;8.93;;;18.90;99.90;;;;;;4994814;28;20770;-70
2022/06/09 07:27:56;;;;;;;13.23;10.30;;;19.00;99.90;;;;;;4993708;28;20526;-69
2022/06/09 07:30:25;;;;;;;12.73;10.70;;;19.10;99.90;;;;;;4996930;28;20476;-69
2022/06/09 07:32:52;;;;;;;16.10;11.23;;;18.90;99.90;;;;;;4995484;28;20480;-70
2022/06/09 07:35:25;;;;;;;17.30;11.60;;;18.70;99.90;;;;;;5002108;28;20480;-70
2022/06/09 07:37:54;;;;;;;15.57;12.20;;;18.50;99.90;;;;;;4994905;28;20990;-71
2022/06/09 07:40:21;;;;;;;16.03;10.40;;;18.30;99.90;;;;;;4991289;28;20441;-69
2022/06/09 07:42:49;;;;;;;15.17;9.40;;;18.30;99.90;;;;;;5002483;28;20472;-69
2022/06/09 07:45:17;;;;;;;11.40;9.40;;;18.40;99.90;;;;;;4993009;28;20960;-67
2022/06/09 07:47:45;;;;;;;13.20;11.77;;;18.60;99.90;;;;;;4996299;28;20437;-70
2022/06/09 07:50:13;;;;;;;18.70;11.47;;;18.70;99.90;;;;;;4996922;28;20488;-70
2022/06/09 07:52:41;;;;;;;16.50;10.00;;;18.90;99.90;;;;;;4985157;28;20475;-69
2022/06/09 07:55:10;;;;;;;12.97;9.27;;;18.90;99.90;;;;;;4992052;28;20472;-70
2022/06/09 07:57:38;;;;;;;13.90;9.70;;;18.90;99.90;;;;;;4995475;28;20480;-69
2022/06/09 08:00:07;;;;;;;14.83;9.63;;;18.90;99.90;;;;;;4996282;28;20928;-70
2022/06/09 08:02:34;;;;;;;14.83;8.43;;;18.90;99.90;;;;;;4994684;28;20468;-70
2022/06/09 08:05:01;;;;;;;15.30;8.87;;;18.80;99.90;;;;;;4998656;28;20947;-69
2022/06/09 08:07:30;;;;;;;10.40;7.70;;;18.80;99.90;;;;;;5002804;28;20480;-69
2022/06/09 08:09:57;;;;;;;13.20;8.37;;;19.00;99.90;;;;;;5008182;28;20507;-71
2022/06/09 08:12:28;;;;;;;19.53;9.40;;;18.80;99.90;;;;;;4992664;28;20479;-69
2022/06/09 08:14:55;;;;;;;13.70;9.00;;;18.80;99.90;;;;;;4991238;28;20451;-69
2022/06/09 08:17:22;;;;;;;13.80;9.40;;;18.90;99.90;;;;;;4993696;28;20445;-69
2022/06/09 08:19:49;;;;;;;9.90;8.83;;;19.00;99.90;;;;;;4995190;28;20449;-69
2022/06/09 08:22:17;;;;;;;9.17;8.20;;;19.10;99.90;;;;;;4993912;28;20490;-69
2022/06/09 08:24:44;;;;;;;16.87;11.07;;;19.10;99.90;;;;;;4992871;28;20563;-70
2022/06/09 08:27:11;;;;;;;15.93;9.50;;;18.80;99.90;;;;;;4999030;28;20441;-70
2022/06/09 08:29:40;;;;;;;15.30;9.77;;;18.80;99.90;;;;;;5000860;28;20484;-69
2022/06/09 08:32:07;;;;;;;14.60;9.13;;;18.90;99.90;;;;;;4994816;28;20511;-69
2022/06/09 08:34:34;;;;;;;14.33;9.27;;;19.00;99.90;;;;;;4996339;28;20539;-70
2022/06/09 08:37:01;;;;;;;12.77;10.43;;;19.10;99.90;;;;;;4989711;28;20550;-69
2022/06/09 08:39:28;;;;;;;13.60;9.80;;;19.30;99.90;;;;;;4998690;28;20443;-70
2022/06/09 08:42:08;;;;;;;10.67;9.13;;;19.50;99.90;;;;;;4992817;28;20480;-70
2022/06/09 08:44:44;;;;;;;18.17;10.37;;;19.80;99.90;;;;;;4980091;28;20440;-69
2022/06/09 08:47:19;;;;;;;11.63;9.23;;;20.20;99.90;;;;;;4978328;28;20877;-69
2022/06/09 08:50:06;;;;;;;11.20;8.17;;;20.30;99.90;;;;;;4970642;28;20531;-69
2022/06/09 08:52:47;;;;;;;12.67;8.90;;;20.30;99.90;;;;;;4985861;28;20489;-70
2022/06/09 08:55:21;;;;;;;16.47;9.97;;;20.10;99.90;;;;;;4992154;28;20512;-70
2022/06/09 08:57:50;;;;;;;15.00;9.97;;;19.90;99.90;;;;;;4975680;28;20440;-69
2022/06/09 09:00:22;;;;;;;17.10;11.10;;;19.90;99.90;;;;;;4990921;28;20453;-70
2022/06/09 09:02:52;;;;;;;13.43;8.87;;;19.80;99.90;;;;;;4989515;28;20476;-69
2022/06/09 09:05:24;;;;;;;13.50;10.43;;;19.80;99.90;;;;;;4992330;28;21022;-70
2022/06/09 09:07:56;;;;;;;15.80;9.67;;;19.70;99.90;;;;;;4990825;28;20444;-69
2022/06/09 09:10:28;;;;;;;15.73;11.07;;;19.70;99.90;;;;;;4994827;28;21024;-69
2022/06/09 09:13:09;;;;;;;11.50;9.50;;;19.80;99.90;;;;;;4998420;28;21659;-68
2022/06/09 09:15:43;;;;;;;14.93;8.80;;;20.10;99.90;;;;;;4974639;28;20531;-69
2022/06/09 09:18:24;;;;;;;9.63;8.73;;;20.30;99.90;;;;;;4990881;28;20939;-69
2022/06/09 09:21:01;;;;;;;11.87;7.73;;;20.70;99.90;;;;;;4969047;28;20439;-69
2022/06/09 09:23:33;;;;;;;8.87;7.97;;;20.90;99.90;;;;;;4991677;28;20482;-69
2022/06/09 09:26:10;;;;;;;10.33;7.70;;;21.30;99.90;;;;;;4993248;28;20983;-71
2022/06/09 09:28:48;;;;;;;8.50;6.90;;;21.70;99.90;;;;;;4992195;28;20478;-70
2022/06/09 09:31:28;;;;;;;9.70;7.50;;;22.30;99.90;;;;;;4992165;28;20434;-70
2022/06/09 09:33:56;;;;;;;11.17;8.40;;;22.40;99.90;;;;;;4994093;28;20793;-68
2022/06/09 09:36:27;;;;;;;11.30;7.70;;;22.20;99.90;;;;;;4990609;28;20571;-68
2022/06/09 09:38:58;;;;;;;9.10;8.20;;;22.10;99.90;;;;;;4995321;28;20456;-70
2022/06/09 09:41:28;;;;;;;9.53;8.30;;;22.60;99.90;;;;;;4992058;28;20532;-70
2022/06/09 09:43:56;;;;;;;9.10;8.00;;;22.70;99.90;;;;;;4989359;28;20461;-70
2022/06/09 09:46:32;;;;;;;8.70;7.20;;;23.10;99.90;;;;;;4992202;28;20449;-70
2022/06/09 09:49:15;;;;;;;9.60;7.53;;;23.80;99.90;;;;;;4995546;28;20511;-71
2022/06/09 09:51:43;;;;;;;10.17;6.63;;;24.40;98.60;;;;;;4985778;28;20530;-70
2022/06/09 09:54:19;;;;;;;8.40;6.23;;;24.90;97.90;;;;;;4989999;28;20449;-70
2022/06/09 09:56:47;;;;;;;7.07;6.40;;;25.20;96.20;;;;;;4995662;28;20441;-70
2022/06/09 09:59:23;;;;;;;7.63;5.83;;;25.90;95.10;;;;;;4993042;28;20483;-71
2022/06/09 10:10:28;;;;;;;9.00;6.80;;;23.60;97.80;;;;;;4988329;28;20516;-70
2022/06/09 10:12:56;;;;;;;7.77;6.33;;;23.70;98.40;;;;;;4992775;28;20965;-71
2022/06/09 10:15:26;;;;;;;7.60;6.77;;;23.70;98.00;;;;;;4994444;28;20472;-70
2022/06/09 10:18:02;;;;;;;9.60;7.47;;;23.60;98.20;;;;;;4994232;28;20810;-70
2022/06/09 10:20:35;;;;;;;9.30;7.73;;;23.70;98.10;;;;;;4992711;28;20499;-70
2022/06/09 10:23:27;;;;;;;7.90;6.73;;;23.90;98.70;;;;;;4995930;28;20480;-71
2022/06/09 10:25:59;;;;;;;8.13;6.87;;;24.60;97.20;;;;;;4995171;28;20469;-70
2022/06/09 10:28:36;;;;;;;10.40;7.10;;;25.40;95.10;;;;;;5004095;28;20453;-70
2022/06/09 10:31:10;;;;;;;8.23;6.40;;;24.80;94.80;;;;;;4999723;28;20476;-69
2022/06/09 10:33:46;;;;;;;9.47;6.13;;;24.50;95.60;;;;;;4971203;28;20472;-70
2022/06/09 10:36:20;;;;;;;8.00;7.20;;;24.40;96.10;;;;;;4983238;28;20448;-70
2022/06/09 10:38:49;;;;;;;6.23;5.63;;;24.20;96.20;;;;;;4979003;28;20475;-70
2022/06/09 10:41:20;;;;;;;6.27;5.40;;;24.10;96.30;;;;;;4995079;28;20452;-70
2022/06/09 10:43:52;;;;;;;9.37;6.57;;;24.10;95.50;;;;;;4997611;28;21046;-70
2022/06/09 10:46:30;;;;;;;8.30;5.70;;;24.10;95.30;;;;;;4994893;28;20880;-71
2022/06/09 10:57:41;;;;;;;9.00;6.30;;;23.70;95.80;;;;;;5000052;28;20467;-70
2022/06/09 11:00:13;;;;;;;6.33;5.73;;;23.90;96.30;;;;;;4993791;28;20540;-70
2022/06/09 11:02:41;;;;;;;6.77;5.37;;;24.20;96.00;;;;;;4995657;28;20547;-69
2022/06/09 11:05:14;;;;;;;12.13;5.53;;;24.50;95.20;;;;;;5005085;28;20530;-70
2022/06/09 11:08:04;;;;;;;7.53;4.77;;;24.80;94.00;;;;;;5003871;28;20446;-70
2022/06/09 11:10:47;;;;;;;7.30;4.83;;;25.00;92.80;;;;;;4995734;28;20615;-71
2022/06/09 11:13:38;;;;;;;5.90;4.13;;;25.00;93.10;;;;;;4986080;28;20467;-70
2022/06/09 11:16:13;;;;;;;8.20;4.67;;;24.80;92.80;;;;;;4998367;28;21041;-70
2022/06/09 11:18:50;;;;;;;5.97;5.00;;;24.80;93.30;;;;;;4979436;28;20482;-69
2022/06/09 11:21:23;;;;;;;6.27;5.30;;;24.80;93.20;;;;;;4980933;28;20444;-70
2022/06/09 11:24:11;;;;;;;5.50;4.30;;;25.00;92.00;;;;;;4999991;28;20535;-70
2022/06/09 11:26:47;;;;;;;6.77;4.50;;;25.10;92.30;;;;;;5000577;28;20444;-71
2022/06/09 11:29:31;;;;;;;5.60;4.93;;;24.80;92.50;;;;;;4988356;28;20447;-70
2022/06/09 11:32:06;;;;;;;6.07;3.87;;;24.30;93.10;;;;;;4988599;28;20476;-70
2022/06/09 11:35:03;;;;;;;5.47;4.60;;;24.20;93.40;;;;;;4977835;28;20452;-71
2022/06/09 11:37:58;;;;;;;6.93;5.30;;;24.30;93.00;;;;;;4992980;28;20790;-70
2022/06/09 11:40:35;;;;;;;5.33;4.80;;;24.40;93.40;;;;;;4989952;28;20452;-70
2022/06/09 11:43:17;;;;;;;7.60;5.73;;;24.60;92.70;;;;;;5002615;28;20495;-69
2022/06/09 11:45:49;;;;;;;5.23;4.30;;;24.40;93.00;;;;;;4999725;28;20502;-69
2022/06/09 11:48:22;;;;;;;8.47;4.67;;;24.50;92.50;;;;;;5004665;28;20912;-71
2022/06/09 11:50:49;;;;;;;3.57;3.27;;;24.60;92.70;;;;;;4992844;28;20484;-71
2022/06/09 11:53:21;;;;;;;5.37;3.30;;;24.80;91.40;;;;;;4993525;28;20893;-70
2022/06/09 11:55:58;;;;;;;6.40;3.67;;;24.70;90.70;;;;;;4996992;28;20834;-70
2022/06/09 11:58:49;;;;;;;4.37;3.93;;;24.30;91.30;;;;;;4998523;28;20960;-71
2022/06/09 12:01:44;;;;;;;5.07;4.07;;;23.70;92.50;;;;;;4995590;28;20532;-70
2022/06/09 12:04:19;;;;;;;6.43;5.03;;;23.60;93.50;;;;;;4982594;28;20466;-70
2022/06/09 12:07:17;;;;;;;5.83;4.30;;;24.00;92.90;;;;;;4999679;28;20455;-70
2022/06/09 12:09:55;;;;;;;7.60;4.03;;;23.90;92.50;;;;;;4986536;28;20481;-71
2022/06/09 12:12:33;;;;;;;4.87;3.53;;;23.80;93.60;;;;;;5003550;28;20546;-71
2022/06/09 12:15:21;;;;;;;3.63;3.23;;;23.70;93.70;;;;;;5002826;28;20528;-73
2022/06/09 12:18:01;;;;;;;4.17;2.50;;;23.50;93.90;;;;;;4990809;28;20445;-70
2022/06/09 12:20:34;;;;;;;9.93;3.70;;;23.40;93.50;;;;;;4993297;28;20448;-70
2022/06/09 12:23:21;;;;;;;7.87;2.87;;;23.40;93.50;;;;;;4993131;28;20483;-69
2022/06/09 12:26:27;;;;;;;6.40;2.50;;;23.40;93.20;;;;;;4998926;28;20451;-71
2022/06/09 12:29:03;;;;;;;8.77;2.63;;;23.60;93.30;;;;;;4997044;28;20448;-70
2022/06/09 12:31:32;;;;;;;6.10;3.30;;;23.60;93.10;;;;;;4991770;28;20476;-69
2022/06/09 12:34:01;;;;;;;3.63;2.63;;;23.60;93.50;;;;;;4995446;28;20528;-70
2022/06/09 12:36:38;;;;;;;2.63;2.30;;;23.40;93.60;;;;;;4994112;28;20448;-70
2022/06/09 12:39:16;;;;;;;3.70;2.60;;;23.40;93.90;;;;;;4975542;28;20456;-70
2022/06/09 12:41:49;;;;;;;3.70;3.00;;;23.10;93.50;;;;;;4975033;28;20451;-70
2022/06/09 12:44:28;;;;;;;3.37;2.03;;;23.00;93.30;;;;;;4993081;28;20579;-71
2022/06/09 12:46:57;;;;;;;2.33;1.40;;;22.90;92.70;;;;;;4994617;28;20869;-70
2022/06/09 12:49:29;;;;;;;2.50;1.80;;;22.80;92.90;;;;;;4993201;28;20515;-69
2022/06/09 12:51:56;;;;;;;3.60;2.57;;;22.60;92.70;;;;;;4992281;28;20492;-69
2022/06/09 12:54:29;;;;;;;3.47;1.97;;;22.50;93.20;;;;;;4996737;28;20468;-69
2022/06/09 12:57:02;;;;;;;3.60;2.20;;;22.50;93.60;;;;;;4999931;28;20457;-69
2022/06/09 12:59:31;;;;;;;4.87;2.60;;;22.50;93.90;;;;;;4966261;28;20457;-71
2022/06/09 13:02:21;;;;;;;2.20;2.00;;;22.50;94.10;;;;;;4992860;28;20468;-70
2022/06/09 13:04:53;;;;;;;5.07;1.93;;;22.60;94.00;;;;;;4987347;28;20445;-71
2022/06/09 13:07:22;;;;;;;3.90;2.20;;;22.70;94.20;;;;;;4991586;28;20452;-71
2022/06/09 13:10:00;;;;;;;4.70;2.50;;;22.70;94.10;;;;;;4990504;28;20939;-70
2022/06/09 13:15:23;;;;;;;2.67;1.67;;;22.60;94.00;;;;;;4991322;28;20434;-69
2022/06/09 13:17:50;;;;;;;4.07;1.97;;;22.90;94.30;;;;;;4981404;28;20953;-70
2022/06/09 13:20:20;;;;;;;2.40;1.50;;;23.30;94.20;;;;;;4994977;28;20440;-70
2022/06/09 13:22:48;;;;;;;3.23;1.33;;;23.80;93.10;;;;;;4991527;28;20580;-69
2022/06/09 13:25:19;;;;;;;4.70;2.03;;;23.90;92.90;;;;;;4999734;28;20800;-71
2022/06/09 13:27:48;;;;;;;3.20;2.50;;;24.10;92.70;;;;;;4996351;28;20503;-71
2022/06/09 13:30:39;;;;;;;5.90;1.70;;;24.30;92.40;;;;;;4993115;28;20484;-70